sensor_id;sensor_type;location;lat;lon;timestamp;P1;durP1;ratioP1;P2;durP2;ratioP2
14392;SDS011;7281;42.678;23.372;2022-10-19T00:01:49;1.80;;;0.53;;
14392;SDS011;7281;42.678;23.372;2022-10-19T00:04:17;0.20;;;0.20;;
14392;SDS011;7281;42.678;23.372;2022-10-19T00:06:44;1.07;;;0.83;;
14392;SDS011;7281;42.678;23.372;2022-10-19T00:09:13;0.23;;;0.23;;
14392;SDS011;7281;42.678;23.372;2022-10-19T00:11:43;2.67;;;1.53;;
14392;SDS011;7281;42.678;23.372;2022-10-19T00:14:12;0.50;;;0.50;;
14392;SDS011;7281;42.678;23.372;2022-10-19T00:16:42;2.47;;;0.83;;
14392;SDS011;7281;42.678;23.372;2022-10-19T00:19:16;0.27;;;0.27;;
14392;SDS011;7281;42.678;23.372;2022-10-19T00:21:45;1.17;;;1.07;;
14392;SDS011;7281;42.678;23.372;2022-10-19T00:24:13;1.90;;;0.83;;
14392;SDS011;7281;42.678;23.372;2022-10-19T00:26:40;0.50;;;0.50;;
14392;SDS011;7281;42.678;23.372;2022-10-19T00:29:07;1.27;;;1.07;;
14392;SDS011;7281;42.678;23.372;2022-10-19T00:31:36;0.30;;;0.30;;
14392;SDS011;7281;42.678;23.372;2022-10-19T00:34:03;0.20;;;0.20;;
14392;SDS011;7281;42.678;23.372;2022-10-19T00:36:31;0.30;;;0.30;;
14392;SDS011;7281;42.678;23.372;2022-10-19T00:39:00;0.63;;;0.63;;
14392;SDS011;7281;42.678;23.372;2022-10-19T00:41:29;2.37;;;0.63;;
14392;SDS011;7281;42.678;23.372;2022-10-19T00:46:26;0.50;;;0.50;;
14392;SDS011;7281;42.678;23.372;2022-10-19T00:48:59;0.40;;;0.40;;
14392;SDS011;7281;42.678;23.372;2022-10-19T00:51:51;1.83;;;1.00;;
14392;SDS011;7281;42.678;23.372;2022-10-19T00:54:21;0.63;;;0.47;;
14392;SDS011;7281;42.678;23.372;2022-10-19T00:56:49;1.30;;;1.20;;
14392;SDS011;7281;42.678;23.372;2022-10-19T00:59:20;1.30;;;1.20;;
14392;SDS011;7281;42.678;23.372;2022-10-19T01:01:51;2.27;;;1.63;;
14392;SDS011;7281;42.678;23.372;2022-10-19T01:04:20;0.40;;;0.40;;
14392;SDS011;7281;42.678;23.372;2022-10-19T01:06:48;0.30;;;0.30;;
14392;SDS011;7281;42.678;23.372;2022-10-19T01:09:22;0.40;;;0.40;;
14392;SDS011;7281;42.678;23.372;2022-10-19T01:15:02;1.47;;;0.77;;
14392;SDS011;7281;42.678;23.372;2022-10-19T01:18:43;2.30;;;1.33;;
14392;SDS011;7281;42.678;23.372;2022-10-19T01:20:57;1.10;;;1.07;;
14392;SDS011;7281;42.678;23.372;2022-10-19T01:29:49;0.97;;;0.97;;
14392;SDS011;7281;42.678;23.372;2022-10-19T01:33:03;1.20;;;1.10;;
14392;SDS011;7281;42.678;23.372;2022-10-19T01:35:54;0.37;;;0.37;;
14392;SDS011;7281;42.678;23.372;2022-10-19T01:38:33;0.20;;;0.20;;
14392;SDS011;7281;42.678;23.372;2022-10-19T01:41:13;0.53;;;0.53;;
14392;SDS011;7281;42.678;23.372;2022-10-19T01:46:40;0.83;;;0.73;;
14392;SDS011;7281;42.678;23.372;2022-10-19T01:49:33;0.13;;;0.13;;
14392;SDS011;7281;42.678;23.372;2022-10-19T01:52:11;1.00;;;0.40;;
14392;SDS011;7281;42.678;23.372;2022-10-19T01:54:44;0.20;;;0.20;;
14392;SDS011;7281;42.678;23.372;2022-10-19T01:57:17;0.50;;;0.50;;
14392;SDS011;7281;42.678;23.372;2022-10-19T01:59:49;2.67;;;1.80;;
14392;SDS011;7281;42.678;23.372;2022-10-19T02:02:17;3.03;;;1.30;;
14392;SDS011;7281;42.678;23.372;2022-10-19T02:04:46;6.53;;;0.83;;
14392;SDS011;7281;42.678;23.372;2022-10-19T02:07:16;1.20;;;1.10;;
14392;SDS011;7281;42.678;23.372;2022-10-19T02:09:45;0.30;;;0.30;;
14392;SDS011;7281;42.678;23.372;2022-10-19T02:12:12;3.83;;;2.03;;
14392;SDS011;7281;42.678;23.372;2022-10-19T02:14:43;0.63;;;0.63;;
14392;SDS011;7281;42.678;23.372;2022-10-19T02:17:17;0.27;;;0.27;;
14392;SDS011;7281;42.678;23.372;2022-10-19T02:19:46;0.77;;;0.77;;
14392;SDS011;7281;42.678;23.372;2022-10-19T02:22:13;0.53;;;0.53;;
14392;SDS011;7281;42.678;23.372;2022-10-19T02:24:40;7.63;;;1.20;;
14392;SDS011;7281;42.678;23.372;2022-10-19T02:27:08;4.13;;;1.03;;
14392;SDS011;7281;42.678;23.372;2022-10-19T02:29:35;1.10;;;0.57;;
14392;SDS011;7281;42.678;23.372;2022-10-19T02:32:03;0.82;;;0.82;;
14392;SDS011;7281;42.678;23.372;2022-10-19T02:34:30;0.25;;;0.25;;
14392;SDS011;7281;42.678;23.372;2022-10-19T02:36:58;0.00;;;0.00;;
14392;SDS011;7281;42.678;23.372;2022-10-19T02:39:25;0.00;;;0.00;;
14392;SDS011;7281;42.678;23.372;2022-10-19T02:44:56;0.33;;;0.33;;
14392;SDS011;7281;42.678;23.372;2022-10-19T02:47:28;0.40;;;0.40;;
14392;SDS011;7281;42.678;23.372;2022-10-19T02:49:59;0.10;;;0.10;;
14392;SDS011;7281;42.678;23.372;2022-10-19T02:52:26;3.37;;;2.13;;
14392;SDS011;7281;42.678;23.372;2022-10-19T02:54:53;0.32;;;0.32;;
14392;SDS011;7281;42.678;23.372;2022-10-19T02:57:21;5.17;;;0.83;;
14392;SDS011;7281;42.678;23.372;2022-10-19T02:59:50;3.57;;;1.37;;
14392;SDS011;7281;42.678;23.372;2022-10-19T03:02:18;1.13;;;1.03;;
14392;SDS011;7281;42.678;23.372;2022-10-19T03:04:46;0.63;;;0.63;;
14392;SDS011;7281;42.678;23.372;2022-10-19T03:07:18;1.00;;;0.97;;
14392;SDS011;7281;42.678;23.372;2022-10-19T03:09:46;1.13;;;1.03;;
14392;SDS011;7281;42.678;23.372;2022-10-19T03:12:14;1.10;;;0.73;;
14392;SDS011;7281;42.678;23.372;2022-10-19T03:14:41;0.37;;;0.37;;
14392;SDS011;7281;42.678;23.372;2022-10-19T03:17:08;2.90;;;1.80;;
14392;SDS011;7281;42.678;23.372;2022-10-19T03:19:35;0.57;;;0.53;;
14392;SDS011;7281;42.678;23.372;2022-10-19T03:22:02;4.30;;;2.83;;
14392;SDS011;7281;42.678;23.372;2022-10-19T03:24:30;0.50;;;0.50;;
14392;SDS011;7281;42.678;23.372;2022-10-19T03:26:57;0.07;;;0.07;;
14392;SDS011;7281;42.678;23.372;2022-10-19T03:29:24;0.53;;;0.53;;
14392;SDS011;7281;42.678;23.372;2022-10-19T03:31:51;0.93;;;0.87;;
14392;SDS011;7281;42.678;23.372;2022-10-19T03:34:19;1.60;;;0.87;;
14392;SDS011;7281;42.678;23.372;2022-10-19T03:36:46;0.38;;;0.38;;
14392;SDS011;7281;42.678;23.372;2022-10-19T03:39:13;0.43;;;0.43;;
14392;SDS011;7281;42.678;23.372;2022-10-19T03:41:41;4.88;;;1.98;;
14392;SDS011;7281;42.678;23.372;2022-10-19T03:44:08;0.28;;;0.28;;
14392;SDS011;7281;42.678;23.372;2022-10-19T03:46:37;0.25;;;0.25;;
14392;SDS011;7281;42.678;23.372;2022-10-19T03:49:04;0.20;;;0.20;;
14392;SDS011;7281;42.678;23.372;2022-10-19T03:51:32;0.32;;;0.30;;
14392;SDS011;7281;42.678;23.372;2022-10-19T03:54:00;0.47;;;0.47;;
14392;SDS011;7281;42.678;23.372;2022-10-19T03:56:29;0.40;;;0.40;;
14392;SDS011;7281;42.678;23.372;2022-10-19T03:58:57;2.67;;;1.70;;
14392;SDS011;7281;42.678;23.372;2022-10-19T04:01:29;0.10;;;0.10;;
14392;SDS011;7281;42.678;23.372;2022-10-19T04:04:11;1.55;;;0.32;;
14392;SDS011;7281;42.678;23.372;2022-10-19T04:06:42;0.47;;;0.28;;
14392;SDS011;7281;42.678;23.372;2022-10-19T04:09:11;1.27;;;1.23;;
14392;SDS011;7281;42.678;23.372;2022-10-19T04:11:40;1.75;;;0.73;;
14392;SDS011;7281;42.678;23.372;2022-10-19T04:14:08;0.87;;;0.87;;
14392;SDS011;7281;42.678;23.372;2022-10-19T04:16:44;4.63;;;1.25;;
14392;SDS011;7281;42.678;23.372;2022-10-19T04:19:14;8.73;;;3.28;;
14392;SDS011;7281;42.678;23.372;2022-10-19T04:21:42;5.20;;;1.35;;
14392;SDS011;7281;42.678;23.372;2022-10-19T04:24:11;0.63;;;0.50;;
14392;SDS011;7281;42.678;23.372;2022-10-19T04:26:40;0.40;;;0.40;;
14392;SDS011;7281;42.678;23.372;2022-10-19T04:29:09;0.57;;;0.53;;
14392;SDS011;7281;42.678;23.372;2022-10-19T04:31:37;2.60;;;2.00;;
14392;SDS011;7281;42.678;23.372;2022-10-19T04:34:05;2.00;;;1.50;;
14392;SDS011;7281;42.678;23.372;2022-10-19T04:36:32;0.65;;;0.63;;
14392;SDS011;7281;42.678;23.372;2022-10-19T04:39:01;5.82;;;1.77;;
14392;SDS011;7281;42.678;23.372;2022-10-19T04:41:29;0.15;;;0.15;;
14392;SDS011;7281;42.678;23.372;2022-10-19T04:43:56;0.33;;;0.33;;
14392;SDS011;7281;42.678;23.372;2022-10-19T04:46:25;0.22;;;0.22;;
14392;SDS011;7281;42.678;23.372;2022-10-19T04:48:53;0.20;;;0.20;;
14392;SDS011;7281;42.678;23.372;2022-10-19T04:51:21;2.90;;;2.60;;
14392;SDS011;7281;42.678;23.372;2022-10-19T04:53:49;12.13;;;7.70;;
14392;SDS011;7281;42.678;23.372;2022-10-19T04:56:20;10.67;;;8.20;;
14392;SDS011;7281;42.678;23.372;2022-10-19T04:58:49;0.85;;;0.85;;
14392;SDS011;7281;42.678;23.372;2022-10-19T05:01:19;1.77;;;1.30;;
14392;SDS011;7281;42.678;23.372;2022-10-19T05:03:51;1.40;;;0.40;;
14392;SDS011;7281;42.678;23.372;2022-10-19T05:06:19;0.75;;;0.75;;
14392;SDS011;7281;42.678;23.372;2022-10-19T05:08:46;1.03;;;0.97;;
14392;SDS011;7281;42.678;23.372;2022-10-19T05:11:15;0.73;;;0.73;;
14392;SDS011;7281;42.678;23.372;2022-10-19T05:13:43;4.93;;;4.37;;
14392;SDS011;7281;42.678;23.372;2022-10-19T05:16:11;4.32;;;3.92;;
14392;SDS011;7281;42.678;23.372;2022-10-19T05:18:40;2.03;;;1.92;;
14392;SDS011;7281;42.678;23.372;2022-10-19T05:21:08;0.40;;;0.40;;
14392;SDS011;7281;42.678;23.372;2022-10-19T05:23:37;1.17;;;0.50;;
14392;SDS011;7281;42.678;23.372;2022-10-19T05:26:06;0.75;;;0.75;;
14392;SDS011;7281;42.678;23.372;2022-10-19T05:28:34;1.27;;;1.17;;
14392;SDS011;7281;42.678;23.372;2022-10-19T05:31:06;0.88;;;0.88;;
14392;SDS011;7281;42.678;23.372;2022-10-19T05:33:39;1.15;;;1.02;;
14392;SDS011;7281;42.678;23.372;2022-10-19T05:36:13;0.57;;;0.57;;
14392;SDS011;7281;42.678;23.372;2022-10-19T05:38:48;0.80;;;0.80;;
14392;SDS011;7281;42.678;23.372;2022-10-19T05:41:15;3.40;;;3.10;;
14392;SDS011;7281;42.678;23.372;2022-10-19T05:43:44;0.70;;;0.70;;
14392;SDS011;7281;42.678;23.372;2022-10-19T05:46:14;0.50;;;0.50;;
14392;SDS011;7281;42.678;23.372;2022-10-19T05:48:45;0.30;;;0.30;;
14392;SDS011;7281;42.678;23.372;2022-10-19T05:51:13;1.40;;;0.87;;
14392;SDS011;7281;42.678;23.372;2022-10-19T05:53:42;0.80;;;0.80;;
14392;SDS011;7281;42.678;23.372;2022-10-19T05:56:12;2.50;;;2.05;;
14392;SDS011;7281;42.678;23.372;2022-10-19T05:58:41;1.27;;;1.20;;
14392;SDS011;7281;42.678;23.372;2022-10-19T06:01:09;0.90;;;0.87;;
14392;SDS011;7281;42.678;23.372;2022-10-19T06:03:36;1.20;;;1.13;;
14392;SDS011;7281;42.678;23.372;2022-10-19T06:06:04;0.30;;;0.30;;
14392;SDS011;7281;42.678;23.372;2022-10-19T06:08:31;0.70;;;0.70;;
14392;SDS011;7281;42.678;23.372;2022-10-19T06:14:03;0.60;;;0.60;;
14392;SDS011;7281;42.678;23.372;2022-10-19T06:16:32;1.07;;;0.93;;
14392;SDS011;7281;42.678;23.372;2022-10-19T06:19:00;1.43;;;1.33;;
14392;SDS011;7281;42.678;23.372;2022-10-19T06:21:28;9.80;;;3.33;;
14392;SDS011;7281;42.678;23.372;2022-10-19T06:23:58;1.30;;;1.20;;
14392;SDS011;7281;42.678;23.372;2022-10-19T06:26:28;1.57;;;1.47;;
14392;SDS011;7281;42.678;23.372;2022-10-19T06:28:58;3.70;;;2.83;;
14392;SDS011;7281;42.678;23.372;2022-10-19T06:31:26;10.77;;;3.10;;
14392;SDS011;7281;42.678;23.372;2022-10-19T06:33:55;1.67;;;1.57;;
14392;SDS011;7281;42.678;23.372;2022-10-19T06:36:23;1.33;;;1.23;;
14392;SDS011;7281;42.678;23.372;2022-10-19T06:38:53;1.60;;;1.50;;
14392;SDS011;7281;42.678;23.372;2022-10-19T06:41:21;2.40;;;2.10;;
14392;SDS011;7281;42.678;23.372;2022-10-19T06:43:52;0.97;;;0.97;;
14392;SDS011;7281;42.678;23.372;2022-10-19T06:46:20;0.67;;;0.67;;
14392;SDS011;7281;42.678;23.372;2022-10-19T06:48:53;1.43;;;1.33;;
14392;SDS011;7281;42.678;23.372;2022-10-19T06:51:23;1.30;;;1.23;;
14392;SDS011;7281;42.678;23.372;2022-10-19T06:53:52;1.33;;;1.07;;
14392;SDS011;7281;42.678;23.372;2022-10-19T06:56:22;2.07;;;1.97;;
14392;SDS011;7281;42.678;23.372;2022-10-19T06:58:52;0.77;;;0.77;;
14392;SDS011;7281;42.678;23.372;2022-10-19T07:01:20;0.77;;;0.70;;
14392;SDS011;7281;42.678;23.372;2022-10-19T07:03:49;7.23;;;2.03;;
14392;SDS011;7281;42.678;23.372;2022-10-19T07:06:19;1.17;;;1.17;;
14392;SDS011;7281;42.678;23.372;2022-10-19T07:08:48;1.37;;;1.27;;
14392;SDS011;7281;42.678;23.372;2022-10-19T07:11:16;2.73;;;2.37;;
14392;SDS011;7281;42.678;23.372;2022-10-19T07:13:44;2.00;;;1.77;;
14392;SDS011;7281;42.678;23.372;2022-10-19T07:16:13;1.20;;;1.13;;
14392;SDS011;7281;42.678;23.372;2022-10-19T07:18:49;0.67;;;0.67;;
14392;SDS011;7281;42.678;23.372;2022-10-19T07:21:17;1.13;;;1.13;;
14392;SDS011;7281;42.678;23.372;2022-10-19T07:23:45;2.07;;;1.83;;
14392;SDS011;7281;42.678;23.372;2022-10-19T07:26:25;0.80;;;0.53;;
14392;SDS011;7281;42.678;23.372;2022-10-19T07:28:54;1.40;;;1.30;;
14392;SDS011;7281;42.678;23.372;2022-10-19T07:31:22;1.07;;;1.07;;
14392;SDS011;7281;42.678;23.372;2022-10-19T07:33:51;10.10;;;2.40;;
14392;SDS011;7281;42.678;23.372;2022-10-19T07:36:20;2.13;;;1.57;;
14392;SDS011;7281;42.678;23.372;2022-10-19T07:38:47;0.20;;;0.20;;
14392;SDS011;7281;42.678;23.372;2022-10-19T07:41:30;0.63;;;0.63;;
14392;SDS011;7281;42.678;23.372;2022-10-19T07:43:57;0.50;;;0.50;;
14392;SDS011;7281;42.678;23.372;2022-10-19T07:46:24;2.30;;;1.80;;
14392;SDS011;7281;42.678;23.372;2022-10-19T07:48:54;0.70;;;0.70;;
14392;SDS011;7281;42.678;23.372;2022-10-19T07:51:21;1.73;;;1.63;;
14392;SDS011;7281;42.678;23.372;2022-10-19T07:53:48;1.70;;;1.60;;
14392;SDS011;7281;42.678;23.372;2022-10-19T07:56:19;4.90;;;2.33;;
14392;SDS011;7281;42.678;23.372;2022-10-19T07:58:51;0.67;;;0.67;;
14392;SDS011;7281;42.678;23.372;2022-10-19T08:01:23;3.00;;;2.20;;
14392;SDS011;7281;42.678;23.372;2022-10-19T08:03:53;0.37;;;0.37;;
14392;SDS011;7281;42.678;23.372;2022-10-19T08:06:41;1.03;;;0.67;;
14392;SDS011;7281;42.678;23.372;2022-10-19T08:09:08;3.03;;;1.33;;
14392;SDS011;7281;42.678;23.372;2022-10-19T08:11:41;0.63;;;0.63;;
14392;SDS011;7281;42.678;23.372;2022-10-19T08:14:10;7.10;;;1.60;;
14392;SDS011;7281;42.678;23.372;2022-10-19T08:16:37;1.87;;;1.77;;
14392;SDS011;7281;42.678;23.372;2022-10-19T08:19:10;1.73;;;0.97;;
14392;SDS011;7281;42.678;23.372;2022-10-19T08:21:40;1.73;;;1.63;;
14392;SDS011;7281;42.678;23.372;2022-10-19T08:24:09;1.33;;;1.03;;
14392;SDS011;7281;42.678;23.372;2022-10-19T08:26:37;0.63;;;0.63;;
14392;SDS011;7281;42.678;23.372;2022-10-19T08:29:23;9.47;;;2.17;;
14392;SDS011;7281;42.678;23.372;2022-10-19T08:31:55;1.37;;;1.27;;
14392;SDS011;7281;42.678;23.372;2022-10-19T08:34:22;1.30;;;1.20;;
14392;SDS011;7281;42.678;23.372;2022-10-19T08:36:50;1.67;;;1.30;;
14392;SDS011;7281;42.678;23.372;2022-10-19T08:39:18;1.57;;;1.47;;
14392;SDS011;7281;42.678;23.372;2022-10-19T08:42:03;0.60;;;0.60;;
14392;SDS011;7281;42.678;23.372;2022-10-19T08:50:36;0.40;;;0.40;;
14392;SDS011;7281;42.678;23.372;2022-10-19T08:53:19;1.63;;;1.33;;
14392;SDS011;7281;42.678;23.372;2022-10-19T08:56:26;1.43;;;1.33;;
14392;SDS011;7281;42.678;23.372;2022-10-19T09:01:57;3.70;;;2.50;;
14392;SDS011;7281;42.678;23.372;2022-10-19T09:04:29;1.00;;;0.97;;
14392;SDS011;7281;42.678;23.372;2022-10-19T09:10:00;0.90;;;0.90;;
14392;SDS011;7281;42.678;23.372;2022-10-19T09:12:40;2.30;;;1.43;;
14392;SDS011;7281;42.678;23.372;2022-10-19T09:15:14;0.20;;;0.20;;
14392;SDS011;7281;42.678;23.372;2022-10-19T09:17:44;0.57;;;0.57;;
14392;SDS011;7281;42.678;23.372;2022-10-19T09:20:15;1.50;;;1.40;;
14392;SDS011;7281;42.678;23.372;2022-10-19T09:22:52;0.40;;;0.40;;
14392;SDS011;7281;42.678;23.372;2022-10-19T09:25:42;0.20;;;0.20;;
14392;SDS011;7281;42.678;23.372;2022-10-19T09:30:36;2.67;;;1.60;;
14392;SDS011;7281;42.678;23.372;2022-10-19T09:33:07;0.30;;;0.30;;
14392;SDS011;7281;42.678;23.372;2022-10-19T09:35:42;2.73;;;1.40;;
14392;SDS011;7281;42.678;23.372;2022-10-19T09:38:11;0.40;;;0.40;;
14392;SDS011;7281;42.678;23.372;2022-10-19T09:40:42;0.93;;;0.93;;
14392;SDS011;7281;42.678;23.372;2022-10-19T09:43:09;0.63;;;0.63;;
14392;SDS011;7281;42.678;23.372;2022-10-19T09:48:49;0.30;;;0.30;;
14392;SDS011;7281;42.678;23.372;2022-10-19T09:51:18;1.10;;;0.83;;
14392;SDS011;7281;42.678;23.372;2022-10-19T09:53:51;0.30;;;0.30;;
14392;SDS011;7281;42.678;23.372;2022-10-19T09:56:22;0.80;;;0.73;;
14392;SDS011;7281;42.678;23.372;2022-10-19T09:58:54;0.87;;;0.87;;
14392;SDS011;7281;42.678;23.372;2022-10-19T10:06:41;0.40;;;0.40;;
14392;SDS011;7281;42.678;23.372;2022-10-19T10:09:16;0.60;;;0.60;;
14392;SDS011;7281;42.678;23.372;2022-10-19T10:11:45;0.20;;;0.20;;
14392;SDS011;7281;42.678;23.372;2022-10-19T10:14:19;1.83;;;1.00;;
14392;SDS011;7281;42.678;23.372;2022-10-19T10:16:56;1.13;;;0.87;;
14392;SDS011;7281;42.678;23.372;2022-10-19T10:19:28;0.70;;;0.70;;
14392;SDS011;7281;42.678;23.372;2022-10-19T10:21:57;0.77;;;0.77;;
14392;SDS011;7281;42.678;23.372;2022-10-19T10:24:28;0.30;;;0.30;;
14392;SDS011;7281;42.678;23.372;2022-10-19T10:26:57;0.17;;;0.17;;
14392;SDS011;7281;42.678;23.372;2022-10-19T10:29:35;0.33;;;0.30;;
14392;SDS011;7281;42.678;23.372;2022-10-19T10:32:11;0.20;;;0.20;;
14392;SDS011;7281;42.678;23.372;2022-10-19T10:34:43;0.73;;;0.67;;
14392;SDS011;7281;42.678;23.372;2022-10-19T10:37:22;0.30;;;0.30;;
14392;SDS011;7281;42.678;23.372;2022-10-19T10:39:55;3.40;;;1.27;;
14392;SDS011;7281;42.678;23.372;2022-10-19T10:42:33;0.27;;;0.27;;
14392;SDS011;7281;42.678;23.372;2022-10-19T10:45:49;1.23;;;1.13;;
14392;SDS011;7281;42.678;23.372;2022-10-19T10:50:50;0.33;;;0.33;;
14392;SDS011;7281;42.678;23.372;2022-10-19T10:56:33;0.30;;;0.30;;
14392;SDS011;7281;42.678;23.372;2022-10-19T10:59:02;0.57;;;0.57;;
14392;SDS011;7281;42.678;23.372;2022-10-19T11:01:39;0.60;;;0.60;;
14392;SDS011;7281;42.678;23.372;2022-10-19T11:04:20;0.73;;;0.67;;
14392;SDS011;7281;42.678;23.372;2022-10-19T11:06:52;0.67;;;0.67;;
14392;SDS011;7281;42.678;23.372;2022-10-19T11:09:30;2.40;;;1.07;;
14392;SDS011;7281;42.678;23.372;2022-10-19T11:12:03;0.50;;;0.50;;
14392;SDS011;7281;42.678;23.372;2022-10-19T11:14:39;0.20;;;0.20;;
14392;SDS011;7281;42.678;23.372;2022-10-19T11:17:17;0.30;;;0.30;;
14392;SDS011;7281;42.678;23.372;2022-10-19T11:19:48;0.30;;;0.30;;
14392;SDS011;7281;42.678;23.372;2022-10-19T11:31:21;0.50;;;0.50;;
14392;SDS011;7281;42.678;23.372;2022-10-19T11:34:07;3.40;;;0.60;;
14392;SDS011;7281;42.678;23.372;2022-10-19T11:39:45;0.60;;;0.60;;
14392;SDS011;7281;42.678;23.372;2022-10-19T11:51:15;0.40;;;0.40;;
14392;SDS011;7281;42.678;23.372;2022-10-19T11:54:12;1.53;;;1.33;;
14392;SDS011;7281;42.678;23.372;2022-10-19T11:59:50;0.60;;;0.60;;
14392;SDS011;7281;42.678;23.372;2022-10-19T12:02:51;0.30;;;0.30;;
14392;SDS011;7281;42.678;23.372;2022-10-19T12:08:32;0.50;;;0.50;;
14392;SDS011;7281;42.678;23.372;2022-10-19T12:13:55;0.50;;;0.50;;
14392;SDS011;7281;42.678;23.372;2022-10-19T12:16:44;3.30;;;1.50;;
14392;SDS011;7281;42.678;23.372;2022-10-19T12:19:27;1.07;;;0.97;;
14392;SDS011;7281;42.678;23.372;2022-10-19T12:21:59;0.50;;;0.50;;
14392;SDS011;7281;42.678;23.372;2022-10-19T12:24:29;0.20;;;0.20;;
14392;SDS011;7281;42.678;23.372;2022-10-19T12:26:59;0.53;;;0.53;;
14392;SDS011;7281;42.678;23.372;2022-10-19T12:29:28;1.13;;;0.83;;
14392;SDS011;7281;42.678;23.372;2022-10-19T12:31:59;0.37;;;0.37;;
14392;SDS011;7281;42.678;23.372;2022-10-19T12:37:22;0.20;;;0.20;;
14392;SDS011;7281;42.678;23.372;2022-10-19T12:40:10;0.23;;;0.23;;
14392;SDS011;7281;42.678;23.372;2022-10-19T12:45:26;0.40;;;0.40;;
14392;SDS011;7281;42.678;23.372;2022-10-19T12:53:26;2.13;;;0.80;;
14392;SDS011;7281;42.678;23.372;2022-10-19T13:01:17;1.83;;;0.53;;
14392;SDS011;7281;42.678;23.372;2022-10-19T13:03:48;0.60;;;0.60;;
14392;SDS011;7281;42.678;23.372;2022-10-19T13:11:18;0.93;;;0.90;;
14392;SDS011;7281;42.678;23.372;2022-10-19T13:24:19;1.50;;;1.30;;
14392;SDS011;7281;42.678;23.372;2022-10-19T13:29:49;0.57;;;0.53;;
14392;SDS011;7281;42.678;23.372;2022-10-19T13:32:35;0.43;;;0.43;;
14392;SDS011;7281;42.678;23.372;2022-10-19T13:35:26;1.17;;;1.07;;
14392;SDS011;7281;42.678;23.372;2022-10-19T13:41:00;0.60;;;0.60;;
14392;SDS011;7281;42.678;23.372;2022-10-19T13:48:55;0.63;;;0.63;;
14392;SDS011;7281;42.678;23.372;2022-10-19T13:51:32;0.67;;;0.67;;
14392;SDS011;7281;42.678;23.372;2022-10-19T14:06:26;0.30;;;0.30;;
14392;SDS011;7281;42.678;23.372;2022-10-19T14:09:18;1.70;;;1.40;;
14392;SDS011;7281;42.678;23.372;2022-10-19T14:11:58;0.20;;;0.20;;
14392;SDS011;7281;42.678;23.372;2022-10-19T14:14:40;0.30;;;0.30;;
14392;SDS011;7281;42.678;23.372;2022-10-19T14:17:12;0.40;;;0.30;;
14392;SDS011;7281;42.678;23.372;2022-10-19T14:19:44;0.43;;;0.43;;
14392;SDS011;7281;42.678;23.372;2022-10-19T14:22:17;1.07;;;0.67;;
14392;SDS011;7281;42.678;23.372;2022-10-19T14:24:44;0.23;;;0.23;;
14392;SDS011;7281;42.678;23.372;2022-10-19T14:27:14;0.37;;;0.37;;
14392;SDS011;7281;42.678;23.372;2022-10-19T14:29:45;0.83;;;0.60;;
14392;SDS011;7281;42.678;23.372;2022-10-19T14:32:16;0.30;;;0.30;;
14392;SDS011;7281;42.678;23.372;2022-10-19T14:34:47;0.40;;;0.40;;
14392;SDS011;7281;42.678;23.372;2022-10-19T14:37:18;1.03;;;0.93;;
14392;SDS011;7281;42.678;23.372;2022-10-19T14:39:56;0.67;;;0.67;;
14392;SDS011;7281;42.678;23.372;2022-10-19T14:42:38;4.60;;;0.63;;
14392;SDS011;7281;42.678;23.372;2022-10-19T14:45:09;0.30;;;0.30;;
14392;SDS011;7281;42.678;23.372;2022-10-19T14:47:55;0.73;;;0.63;;
14392;SDS011;7281;42.678;23.372;2022-10-19T14:50:32;4.10;;;1.47;;
14392;SDS011;7281;42.678;23.372;2022-10-19T14:58:51;0.20;;;0.20;;
14392;SDS011;7281;42.678;23.372;2022-10-19T15:01:24;0.77;;;0.77;;
14392;SDS011;7281;42.678;23.372;2022-10-19T15:03:51;0.70;;;0.60;;
14392;SDS011;7281;42.678;23.372;2022-10-19T15:06:23;1.23;;;0.63;;
14392;SDS011;7281;42.678;23.372;2022-10-19T15:09:03;0.43;;;0.30;;
14392;SDS011;7281;42.678;23.372;2022-10-19T15:11:45;1.03;;;1.00;;
14392;SDS011;7281;42.678;23.372;2022-10-19T15:14:16;1.03;;;0.70;;
14392;SDS011;7281;42.678;23.372;2022-10-19T15:27:36;1.37;;;1.27;;
14392;SDS011;7281;42.678;23.372;2022-10-19T15:30:26;4.33;;;1.63;;
14392;SDS011;7281;42.678;23.372;2022-10-19T15:35:31;0.80;;;0.80;;
14392;SDS011;7281;42.678;23.372;2022-10-19T15:38:03;0.43;;;0.43;;
14392;SDS011;7281;42.678;23.372;2022-10-19T15:40:43;1.43;;;0.90;;
14392;SDS011;7281;42.678;23.372;2022-10-19T15:46:19;0.53;;;0.53;;
14392;SDS011;7281;42.678;23.372;2022-10-19T15:48:47;0.40;;;0.40;;
14392;SDS011;7281;42.678;23.372;2022-10-19T15:53:51;0.60;;;0.60;;
14392;SDS011;7281;42.678;23.372;2022-10-19T15:56:20;0.63;;;0.63;;
14392;SDS011;7281;42.678;23.372;2022-10-19T15:58:49;0.73;;;0.73;;
14392;SDS011;7281;42.678;23.372;2022-10-19T16:01:22;1.37;;;0.70;;
14392;SDS011;7281;42.678;23.372;2022-10-19T16:03:54;0.80;;;0.80;;
14392;SDS011;7281;42.678;23.372;2022-10-19T16:06:24;0.90;;;0.87;;
14392;SDS011;7281;42.678;23.372;2022-10-19T16:08:53;0.67;;;0.67;;
14392;SDS011;7281;42.678;23.372;2022-10-19T16:11:20;0.40;;;0.40;;
14392;SDS011;7281;42.678;23.372;2022-10-19T16:13:49;1.80;;;1.23;;
14392;SDS011;7281;42.678;23.372;2022-10-19T16:16:37;0.40;;;0.40;;
14392;SDS011;7281;42.678;23.372;2022-10-19T16:19:04;3.13;;;2.40;;
14392;SDS011;7281;42.678;23.372;2022-10-19T16:21:32;0.63;;;0.63;;
14392;SDS011;7281;42.678;23.372;2022-10-19T16:24:02;12.83;;;1.53;;
14392;SDS011;7281;42.678;23.372;2022-10-19T16:26:29;0.80;;;0.80;;
14392;SDS011;7281;42.678;23.372;2022-10-19T16:28:58;0.73;;;0.73;;
14392;SDS011;7281;42.678;23.372;2022-10-19T16:31:26;0.70;;;0.70;;
14392;SDS011;7281;42.678;23.372;2022-10-19T16:33:52;1.00;;;0.93;;
14392;SDS011;7281;42.678;23.372;2022-10-19T16:36:19;0.60;;;0.60;;
14392;SDS011;7281;42.678;23.372;2022-10-19T16:38:46;12.07;;;6.60;;
14392;SDS011;7281;42.678;23.372;2022-10-19T16:41:14;0.87;;;0.87;;
14392;SDS011;7281;42.678;23.372;2022-10-19T16:43:41;2.37;;;2.07;;
14392;SDS011;7281;42.678;23.372;2022-10-19T16:46:08;10.27;;;4.90;;
14392;SDS011;7281;42.678;23.372;2022-10-19T16:48:35;15.03;;;8.37;;
14392;SDS011;7281;42.678;23.372;2022-10-19T16:53:33;26.50;;;17.07;;
14392;SDS011;7281;42.678;23.372;2022-10-19T16:56:04;159.90;;;76.60;;
14392;SDS011;7281;42.678;23.372;2022-10-19T16:58:33;35.87;;;8.90;;
14392;SDS011;7281;42.678;23.372;2022-10-19T17:01:05;59.67;;;26.43;;
14392;SDS011;7281;42.678;23.372;2022-10-19T17:03:36;164.87;;;68.93;;
14392;SDS011;7281;42.678;23.372;2022-10-19T17:06:06;235.70;;;133.63;;
14392;SDS011;7281;42.678;23.372;2022-10-19T17:08:34;103.60;;;61.67;;
14392;SDS011;7281;42.678;23.372;2022-10-19T17:11:29;40.80;;;11.50;;
14392;SDS011;7281;42.678;23.372;2022-10-19T17:13:58;22.37;;;12.23;;
14392;SDS011;7281;42.678;23.372;2022-10-19T17:16:28;22.33;;;15.83;;
14392;SDS011;7281;42.678;23.372;2022-10-19T17:18:57;3.60;;;3.13;;
14392;SDS011;7281;42.678;23.372;2022-10-19T17:21:25;70.60;;;44.27;;
14392;SDS011;7281;42.678;23.372;2022-10-19T17:23:55;7.57;;;5.97;;
14392;SDS011;7281;42.678;23.372;2022-10-19T17:26:31;100.43;;;63.87;;
14392;SDS011;7281;42.678;23.372;2022-10-19T17:29:03;25.30;;;14.63;;
14392;SDS011;7281;42.678;23.372;2022-10-19T17:31:30;2.97;;;2.70;;
14392;SDS011;7281;42.678;23.372;2022-10-19T17:33:57;72.47;;;46.03;;
14392;SDS011;7281;42.678;23.372;2022-10-19T17:36:27;30.17;;;14.60;;
14392;SDS011;7281;42.678;23.372;2022-10-19T17:38:57;17.73;;;13.73;;
14392;SDS011;7281;42.678;23.372;2022-10-19T17:41:26;21.97;;;16.37;;
14392;SDS011;7281;42.678;23.372;2022-10-19T17:43:55;1.90;;;1.80;;
14392;SDS011;7281;42.678;23.372;2022-10-19T17:46:23;3.50;;;2.73;;
14392;SDS011;7281;42.678;23.372;2022-10-19T17:48:56;1.87;;;1.63;;
14392;SDS011;7281;42.678;23.372;2022-10-19T17:51:24;3.07;;;2.77;;
14392;SDS011;7281;42.678;23.372;2022-10-19T17:53:53;6.50;;;5.17;;
14392;SDS011;7281;42.678;23.372;2022-10-19T17:56:24;1.80;;;1.43;;